»·PEaware :: N7581G KLAX-KSAN

N7581G :: KLAX-KSAN

FLIGHT INFORMATION

Flight Status: Arrived
Operator: Privately registered:
United States
More flights under this callsign
Pilot: Trevor B. (30174)
Aircraft: CESSNA 172 SKYHAWK
(C172)
More flights by this aircraft type
Origin: KLAX Los Angeles Intl
United States
Destination: KSAN San Diego Intl-Lindbergh
United States
More flights between these airports :: More routes between these airports
Route: FERMY MINOE OFREE CARIF MZB
File this flight plan on PilotEdge
Remarks:
Altitude:
(Current/Filed)
5,500ft
Speed:
(Current/Filed)
120kts
Departed: 24-Jul-20 04:30 PM
Arrived: 24-Jul-20 06:13 PM
Distance/Time
Traveled:
95nm/1:42
Distance/Time
To Go:
Arrived

Flight Plot

Page will automatically refresh every two minutes.


Map Options




Map Legend


Flown Route
Filed Route
Departure Airport
Arrival Airport
Navaid (VOR, NDB)
Fix

Horizontal Profiles

Position Reports

Time Latitude Longitude Heading Altitude Ground
Speed
24-Jul-20 16:13 33.932659 -118.399132 83 111ft 0kts
24-Jul-20 16:14 33.932659 -118.399132 83 111ft 0kts
24-Jul-20 16:15 33.932659 -118.399132 83 111ft 0kts
24-Jul-20 16:16 33.932659 -118.399132 83 111ft 0kts
24-Jul-20 16:17 33.932659 -118.399132 83 111ft 0kts
24-Jul-20 16:18 33.932659 -118.399132 83 111ft 0kts
24-Jul-20 16:19 33.932659 -118.399132 83 111ft 0kts
24-Jul-20 16:20 33.932659 -118.399132 83 111ft 0kts
24-Jul-20 16:21 33.932659 -118.399132 83 111ft 0kts
24-Jul-20 16:22 33.933152 -118.398971 348 110ft 4kts
24-Jul-20 16:23 33.933966 -118.398181 0 109ft 0kts
24-Jul-20 16:24 33.934683 -118.396909 82 107ft 9kts
24-Jul-20 16:25 33.935118 -118.392644 81 102ft 17kts
24-Jul-20 16:26 33.935751 -118.386438 83 99ft 20kts
24-Jul-20 16:27 33.936378 -118.382846 13 96ft 0kts
24-Jul-20 16:28 33.936378 -118.382846 13 96ft 0kts
24-Jul-20 16:29 33.936625 -118.390208 263 160ft 79kts
24-Jul-20 16:30 33.933579 -118.416216 256 1202ft 77kts
24-Jul-20 16:31 33.920466 -118.425286 140 2178ft 86kts
24-Jul-20 16:32 33.906223 -118.397196 122 2450ft 117kts
24-Jul-20 16:33 33.892144 -118.361421 125 2750ft 114kts
24-Jul-20 16:34 33.871043 -118.337301 145 3527ft 104kts
24-Jul-20 16:35 33.848820 -118.315194 141 4265ft 104kts
24-Jul-20 16:36 33.826205 -118.295332 153 4999ft 99kts
24-Jul-20 16:37 33.801797 -118.276428 152 5433ft 111kts
24-Jul-20 16:38 33.776134 -118.255852 145 5479ft 111kts
24-Jul-20 16:39 33.753027 -118.230209 141 5483ft 111kts
24-Jul-20 16:40 33.729978 -118.202984 140 5339ft 118kts
24-Jul-20 16:57 33.932658 -118.399141 83 111ft 0kts
24-Jul-20 16:58 33.932658 -118.399141 83 111ft 0kts
24-Jul-20 16:59 33.932658 -118.399141 83 111ft 0kts
24-Jul-20 17:00 33.932658 -118.399141 83 111ft 0kts
24-Jul-20 17:01 33.932658 -118.399141 83 111ft 0kts
24-Jul-20 17:02 33.932658 -118.399141 83 111ft 0kts
24-Jul-20 17:03 33.932658 -118.399141 83 111ft 0kts
24-Jul-20 17:04 33.932658 -118.399141 83 111ft 0kts
24-Jul-20 17:05 33.932976 -118.398944 349 111ft 4kts
24-Jul-20 17:06 33.933819 -118.398270 37 109ft 4kts
24-Jul-20 17:07 33.934699 -118.396743 83 107ft 9kts
24-Jul-20 17:08 33.934938 -118.394401 82 104ft 11kts
24-Jul-20 17:09 33.935411 -118.389746 82 101ft 14kts
24-Jul-20 17:10 33.935812 -118.385830 84 99ft 9kts
24-Jul-20 17:11 33.936092 -118.383207 72 96ft 6kts
24-Jul-20 17:12 33.936332 -118.382873 25 96ft 0kts
24-Jul-20 17:13 33.936332 -118.382873 25 96ft 0kts
24-Jul-20 17:14 33.936741 -118.390364 264 204ft 75kts
24-Jul-20 17:15 33.933620 -118.414261 252 1251ft 71kts
24-Jul-20 17:16 33.918910 -118.428634 165 1566ft 98kts
24-Jul-20 17:17 33.893147 -118.414031 140 1514ft 101kts
24-Jul-20 17:18 33.875552 -118.385688 130 2052ft 110kts
24-Jul-20 17:19 33.857391 -118.357230 135 2712ft 103kts
24-Jul-20 17:20 33.839328 -118.330490 135 3434ft 101kts
24-Jul-20 17:21 33.819356 -118.303956 146 3559ft 108kts
24-Jul-20 17:22 33.795705 -118.278551 144 3488ft 116kts
24-Jul-20 17:23 33.770897 -118.254190 144 3498ft 114kts
24-Jul-20 17:24 33.747451 -118.229075 139 3529ft 115kts
24-Jul-20 17:25 33.724808 -118.201930 140 3548ft 114kts
24-Jul-20 17:26 33.702059 -118.175235 135 3598ft 113kts
24-Jul-20 17:27 33.677947 -118.149643 148 3598ft 112kts
24-Jul-20 17:28 33.653196 -118.124880 143 3597ft 115kts
24-Jul-20 17:29 33.629876 -118.101160 135 4202ft 102kts
24-Jul-20 17:30 33.610421 -118.079340 138 5078ft 89kts
24-Jul-20 17:31 33.591074 -118.059784 135 5571ft 107kts
24-Jul-20 17:32 33.566179 -118.036507 141 5641ft 115kts
24-Jul-20 17:33 33.538880 -118.013939 136 5595ft 116kts
24-Jul-20 17:34 33.513599 -117.988630 131 5583ft 117kts
24-Jul-20 17:35 33.494840 -117.956674 125 5538ft 118kts
24-Jul-20 17:36 33.475711 -117.924525 122 5507ft 118kts
24-Jul-20 17:37 33.456955 -117.893895 124 5617ft 113kts
24-Jul-20 17:38 33.441226 -117.859964 113 5568ft 117kts
24-Jul-20 17:39 33.428927 -117.823961 118 5545ft 119kts
24-Jul-20 17:40 33.412048 -117.788555 130 5496ft 124kts
24-Jul-20 17:41 33.390425 -117.756805 131 5483ft 124kts
24-Jul-20 17:42 33.370681 -117.724102 119 5570ft 118kts
24-Jul-20 17:43 33.354803 -117.688650 123 5518ft 126kts
24-Jul-20 17:44 33.331633 -117.660340 144 5527ft 120kts
24-Jul-20 17:45 33.307001 -117.633138 136 5405ft 125kts
24-Jul-20 17:46 33.284635 -117.604552 135 5465ft 117kts
24-Jul-20 17:47 33.262050 -117.576695 141 5499ft 111kts
24-Jul-20 17:48 33.237937 -117.552549 132 5482ft 118kts
24-Jul-20 17:49 33.221885 -117.515905 112 4706ft 134kts
24-Jul-20 17:50 33.208818 -117.473409 112 3156ft 133kts
24-Jul-20 17:51 33.198577 -117.430969 101 1727ft 127kts
24-Jul-20 17:52 33.189108 -117.391896 118 1415ft 113kts
24-Jul-20 17:53 33.166722 -117.366737 154 1551ft 111kts
24-Jul-20 17:54 33.136682 -117.355904 164 1509ft 120kts
24-Jul-20 17:55 33.105714 -117.342197 160 1511ft 116kts
24-Jul-20 17:56 33.075278 -117.328346 157 1500ft 117kts
24-Jul-20 17:57 33.046328 -117.311116 159 1467ft 121kts
24-Jul-20 17:58 33.016957 -117.296812 167 1602ft 108kts
24-Jul-20 17:59 32.985612 -117.290577 178 1499ft 115kts
24-Jul-20 18:00 32.953824 -117.283141 162 1392ft 120kts
24-Jul-20 18:01 32.923469 -117.273991 169 1481ft 116kts
24-Jul-20 18:02 32.892264 -117.271366 183 1529ft 114kts
24-Jul-20 18:03 32.860165 -117.272345 186 1464ft 114kts
24-Jul-20 18:04 32.828839 -117.274364 188 1478ft 114kts
24-Jul-20 18:05 32.795241 -117.277714 183 1169ft 115kts
24-Jul-20 18:06 32.769975 -117.268228 118 1055ft 92kts
24-Jul-20 18:07 32.761791 -117.237761 110 1116ft 97kts
24-Jul-20 18:08 32.754279 -117.205886 103 1045ft 102kts
24-Jul-20 18:09 32.746525 -117.173769 111 857ft 95kts
24-Jul-20 18:10 32.731486 -117.163806 222 692ft 65kts
24-Jul-20 18:11 32.731712 -117.181923 281 18ft 43kts
24-Jul-20 18:12 32.733135 -117.184250 354 17ft 0kts
24-Jul-20 18:13 32.734051 -117.185580 332 17ft 7kts
24-Jul-20 18:14 32.734368 -117.185864 289 17ft 0kts

Navigation Log

Ident Type
Flight plan parsing failed, navigation log unavailable